sensor_id;sensor_type;location;lat;lon;timestamp;temperature;humidity
18682;DHT22;9471;51.168;4.154;2022-08-27T00:00:31;19.40;99.90
18682;DHT22;9471;51.168;4.154;2022-08-27T00:02:58;19.40;99.90
18682;DHT22;9471;51.168;4.154;2022-08-27T00:05:26;19.40;99.90
18682;DHT22;9471;51.168;4.154;2022-08-27T00:07:53;19.40;99.90
18682;DHT22;9471;51.168;4.154;2022-08-27T00:10:23;19.40;99.90
18682;DHT22;9471;51.168;4.154;2022-08-27T00:12:52;19.30;99.90
18682;DHT22;9471;51.168;4.154;2022-08-27T00:15:22;19.20;99.90
18682;DHT22;9471;51.168;4.154;2022-08-27T00:17:49;19.30;99.90
18682;DHT22;9471;51.168;4.154;2022-08-27T00:20:19;19.30;99.90
18682;DHT22;9471;51.168;4.154;2022-08-27T00:22:46;19.20;99.90
18682;DHT22;9471;51.168;4.154;2022-08-27T00:25:14;19.20;99.90
18682;DHT22;9471;51.168;4.154;2022-08-27T00:27:41;19.20;99.90
18682;DHT22;9471;51.168;4.154;2022-08-27T00:30:12;19.20;99.90
18682;DHT22;9471;51.168;4.154;2022-08-27T00:32:41;19.20;99.90
18682;DHT22;9471;51.168;4.154;2022-08-27T00:35:09;19.10;99.90
18682;DHT22;9471;51.168;4.154;2022-08-27T00:37:36;19.10;99.90
18682;DHT22;9471;51.168;4.154;2022-08-27T00:40:06;19.00;99.90
18682;DHT22;9471;51.168;4.154;2022-08-27T00:42:33;19.10;99.90
18682;DHT22;9471;51.168;4.154;2022-08-27T00:45:00;19.10;99.90
18682;DHT22;9471;51.168;4.154;2022-08-27T00:47:29;19.10;99.90
18682;DHT22;9471;51.168;4.154;2022-08-27T00:50:03;19.10;99.90
18682;DHT22;9471;51.168;4.154;2022-08-27T00:52:34;19.10;99.90
18682;DHT22;9471;51.168;4.154;2022-08-27T00:55:06;19.10;99.90
18682;DHT22;9471;51.168;4.154;2022-08-27T00:57:35;19.00;99.90
18682;DHT22;9471;51.168;4.154;2022-08-27T01:00:07;19.00;99.90
18682;DHT22;9471;51.168;4.154;2022-08-27T01:02:35;19.00;99.90
18682;DHT22;9471;51.168;4.154;2022-08-27T01:05:06;19.00;99.90
18682;DHT22;9471;51.168;4.154;2022-08-27T01:07:38;18.90;99.90
18682;DHT22;9471;51.168;4.154;2022-08-27T01:10:10;19.00;99.90
18682;DHT22;9471;51.168;4.154;2022-08-27T01:12:37;19.00;99.90
18682;DHT22;9471;51.168;4.154;2022-08-27T01:15:07;18.90;99.90
18682;DHT22;9471;51.168;4.154;2022-08-27T01:17:36;18.90;99.90
18682;DHT22;9471;51.168;4.154;2022-08-27T01:20:08;18.90;99.90
18682;DHT22;9471;51.168;4.154;2022-08-27T01:22:47;18.70;99.90
18682;DHT22;9471;51.168;4.154;2022-08-27T01:25:19;18.70;99.90
18682;DHT22;9471;51.168;4.154;2022-08-27T01:27:48;18.70;99.90
18682;DHT22;9471;51.168;4.154;2022-08-27T01:30:17;18.60;99.90
18682;DHT22;9471;51.168;4.154;2022-08-27T01:32:45;18.60;99.90
18682;DHT22;9471;51.168;4.154;2022-08-27T01:35:13;18.60;99.90
18682;DHT22;9471;51.168;4.154;2022-08-27T01:37:41;18.70;99.90
18682;DHT22;9471;51.168;4.154;2022-08-27T01:40:10;18.60;99.90
18682;DHT22;9471;51.168;4.154;2022-08-27T01:42:41;18.50;99.90
18682;DHT22;9471;51.168;4.154;2022-08-27T01:45:11;18.50;99.90
18682;DHT22;9471;51.168;4.154;2022-08-27T01:47:39;18.50;99.90
18682;DHT22;9471;51.168;4.154;2022-08-27T01:50:07;18.60;99.90
18682;DHT22;9471;51.168;4.154;2022-08-27T01:52:34;18.60;99.90
18682;DHT22;9471;51.168;4.154;2022-08-27T01:55:03;18.60;99.90
18682;DHT22;9471;51.168;4.154;2022-08-27T01:57:31;18.60;99.90
18682;DHT22;9471;51.168;4.154;2022-08-27T02:00:02;18.50;99.90
18682;DHT22;9471;51.168;4.154;2022-08-27T02:02:29;18.10;99.90
18682;DHT22;9471;51.168;4.154;2022-08-27T02:04:57;17.70;99.90
18682;DHT22;9471;51.168;4.154;2022-08-27T02:07:24;17.60;99.90
18682;DHT22;9471;51.168;4.154;2022-08-27T02:09:51;17.60;99.90
18682;DHT22;9471;51.168;4.154;2022-08-27T02:12:18;17.70;99.90
18682;DHT22;9471;51.168;4.154;2022-08-27T02:14:45;17.70;99.90
18682;DHT22;9471;51.168;4.154;2022-08-27T02:17:13;17.70;99.90
18682;DHT22;9471;51.168;4.154;2022-08-27T02:19:40;17.50;99.90
18682;DHT22;9471;51.168;4.154;2022-08-27T02:22:07;17.40;99.90
18682;DHT22;9471;51.168;4.154;2022-08-27T02:24:34;17.40;99.90
18682;DHT22;9471;51.168;4.154;2022-08-27T02:27:01;17.50;99.90
18682;DHT22;9471;51.168;4.154;2022-08-27T02:29:28;17.70;99.90
18682;DHT22;9471;51.168;4.154;2022-08-27T02:31:55;17.80;99.90
18682;DHT22;9471;51.168;4.154;2022-08-27T02:34:24;17.50;99.90
18682;DHT22;9471;51.168;4.154;2022-08-27T02:36:51;17.30;99.90
18682;DHT22;9471;51.168;4.154;2022-08-27T02:39:18;17.40;99.90
18682;DHT22;9471;51.168;4.154;2022-08-27T02:41:45;17.60;99.90
18682;DHT22;9471;51.168;4.154;2022-08-27T02:44:13;17.60;99.90
18682;DHT22;9471;51.168;4.154;2022-08-27T02:46:40;17.70;99.90
18682;DHT22;9471;51.168;4.154;2022-08-27T02:49:08;17.80;99.90
18682;DHT22;9471;51.168;4.154;2022-08-27T02:51:36;17.60;99.90
18682;DHT22;9471;51.168;4.154;2022-08-27T02:54:03;17.50;99.90
18682;DHT22;9471;51.168;4.154;2022-08-27T02:56:30;17.20;99.90
18682;DHT22;9471;51.168;4.154;2022-08-27T02:58:57;17.40;99.90
18682;DHT22;9471;51.168;4.154;2022-08-27T03:01:25;17.50;99.90
18682;DHT22;9471;51.168;4.154;2022-08-27T03:03:52;17.60;99.90
18682;DHT22;9471;51.168;4.154;2022-08-27T03:06:19;17.60;99.90
18682;DHT22;9471;51.168;4.154;2022-08-27T03:08:47;17.50;99.90
18682;DHT22;9471;51.168;4.154;2022-08-27T03:11:14;17.40;99.90
18682;DHT22;9471;51.168;4.154;2022-08-27T03:13:41;17.20;99.90
18682;DHT22;9471;51.168;4.154;2022-08-27T03:16:08;17.20;99.90
18682;DHT22;9471;51.168;4.154;2022-08-27T03:18:35;17.00;99.90
18682;DHT22;9471;51.168;4.154;2022-08-27T03:21:02;17.10;99.90
18682;DHT22;9471;51.168;4.154;2022-08-27T03:23:30;17.00;99.90
18682;DHT22;9471;51.168;4.154;2022-08-27T03:26:01;17.10;99.90
18682;DHT22;9471;51.168;4.154;2022-08-27T03:28:31;17.20;99.90
18682;DHT22;9471;51.168;4.154;2022-08-27T03:31:02;17.20;99.90
18682;DHT22;9471;51.168;4.154;2022-08-27T03:33:31;17.30;99.90
18682;DHT22;9471;51.168;4.154;2022-08-27T03:35:59;17.40;99.90
18682;DHT22;9471;51.168;4.154;2022-08-27T03:38:26;17.40;99.90
18682;DHT22;9471;51.168;4.154;2022-08-27T03:40:53;17.50;99.90
18682;DHT22;9471;51.168;4.154;2022-08-27T03:43:22;17.60;99.90
18682;DHT22;9471;51.168;4.154;2022-08-27T03:45:50;17.60;99.90
18682;DHT22;9471;51.168;4.154;2022-08-27T03:48:17;17.50;99.90
18682;DHT22;9471;51.168;4.154;2022-08-27T03:50:48;17.60;99.90
18682;DHT22;9471;51.168;4.154;2022-08-27T03:53:17;17.60;99.90
18682;DHT22;9471;51.168;4.154;2022-08-27T03:55:45;17.70;99.90
18682;DHT22;9471;51.168;4.154;2022-08-27T03:58:13;17.70;99.90
18682;DHT22;9471;51.168;4.154;2022-08-27T04:00:41;17.80;99.90
18682;DHT22;9471;51.168;4.154;2022-08-27T04:03:11;17.80;99.90
18682;DHT22;9471;51.168;4.154;2022-08-27T04:05:39;18.00;99.90
18682;DHT22;9471;51.168;4.154;2022-08-27T04:08:07;17.90;99.90
18682;DHT22;9471;51.168;4.154;2022-08-27T04:10:34;17.80;99.90
18682;DHT22;9471;51.168;4.154;2022-08-27T04:13:01;17.80;99.90
18682;DHT22;9471;51.168;4.154;2022-08-27T04:15:28;17.80;99.90
18682;DHT22;9471;51.168;4.154;2022-08-27T04:17:56;17.80;99.90
18682;DHT22;9471;51.168;4.154;2022-08-27T04:20:24;17.70;99.90
18682;DHT22;9471;51.168;4.154;2022-08-27T04:22:52;17.70;99.90
18682;DHT22;9471;51.168;4.154;2022-08-27T04:25:19;17.70;99.90
18682;DHT22;9471;51.168;4.154;2022-08-27T04:27:46;17.60;99.90
18682;DHT22;9471;51.168;4.154;2022-08-27T04:30:13;17.60;99.90
18682;DHT22;9471;51.168;4.154;2022-08-27T04:32:41;17.70;99.90
18682;DHT22;9471;51.168;4.154;2022-08-27T04:35:09;17.70;99.90
18682;DHT22;9471;51.168;4.154;2022-08-27T04:37:37;17.70;99.90
18682;DHT22;9471;51.168;4.154;2022-08-27T04:40:05;17.70;99.90
18682;DHT22;9471;51.168;4.154;2022-08-27T04:42:35;17.70;99.90
18682;DHT22;9471;51.168;4.154;2022-08-27T04:45:03;17.70;99.90
18682;DHT22;9471;51.168;4.154;2022-08-27T04:47:30;17.70;99.90
18682;DHT22;9471;51.168;4.154;2022-08-27T04:49:57;17.70;99.90
18682;DHT22;9471;51.168;4.154;2022-08-27T04:52:26;17.70;99.90
18682;DHT22;9471;51.168;4.154;2022-08-27T04:54:53;17.70;99.90
18682;DHT22;9471;51.168;4.154;2022-08-27T04:57:20;17.70;99.90
18682;DHT22;9471;51.168;4.154;2022-08-27T04:59:47;17.70;99.90
18682;DHT22;9471;51.168;4.154;2022-08-27T05:02:13;17.70;99.90
18682;DHT22;9471;51.168;4.154;2022-08-27T05:04:41;17.70;99.90
18682;DHT22;9471;51.168;4.154;2022-08-27T05:07:09;17.60;99.90
18682;DHT22;9471;51.168;4.154;2022-08-27T05:09:37;17.50;99.90
18682;DHT22;9471;51.168;4.154;2022-08-27T05:12:04;17.60;99.90
18682;DHT22;9471;51.168;4.154;2022-08-27T05:14:32;17.60;99.90
18682;DHT22;9471;51.168;4.154;2022-08-27T05:16:59;17.50;99.90
18682;DHT22;9471;51.168;4.154;2022-08-27T05:19:28;17.30;99.90
18682;DHT22;9471;51.168;4.154;2022-08-27T05:21:55;17.40;99.90
18682;DHT22;9471;51.168;4.154;2022-08-27T05:24:22;17.50;99.90
18682;DHT22;9471;51.168;4.154;2022-08-27T05:26:50;17.60;99.90
18682;DHT22;9471;51.168;4.154;2022-08-27T05:29:17;17.60;99.90
18682;DHT22;9471;51.168;4.154;2022-08-27T05:31:45;17.60;99.90
18682;DHT22;9471;51.168;4.154;2022-08-27T05:34:13;17.80;99.90
18682;DHT22;9471;51.168;4.154;2022-08-27T05:36:40;17.80;99.90
18682;DHT22;9471;51.168;4.154;2022-08-27T05:39:07;17.80;99.90
18682;DHT22;9471;51.168;4.154;2022-08-27T05:41:34;17.80;99.90
18682;DHT22;9471;51.168;4.154;2022-08-27T05:44:05;17.90;99.90
18682;DHT22;9471;51.168;4.154;2022-08-27T05:46:34;18.00;99.90
18682;DHT22;9471;51.168;4.154;2022-08-27T05:49:02;18.00;99.90
18682;DHT22;9471;51.168;4.154;2022-08-27T05:51:32;18.00;99.90
18682;DHT22;9471;51.168;4.154;2022-08-27T05:54:01;18.00;99.90
18682;DHT22;9471;51.168;4.154;2022-08-27T05:56:31;18.10;99.90
18682;DHT22;9471;51.168;4.154;2022-08-27T05:58:58;18.20;99.90
18682;DHT22;9471;51.168;4.154;2022-08-27T06:01:46;18.20;99.90
18682;DHT22;9471;51.168;4.154;2022-08-27T06:04:15;18.20;99.90
18682;DHT22;9471;51.168;4.154;2022-08-27T06:06:43;18.30;99.90
18682;DHT22;9471;51.168;4.154;2022-08-27T06:09:12;18.20;99.90
18682;DHT22;9471;51.168;4.154;2022-08-27T06:11:39;18.30;99.90
18682;DHT22;9471;51.168;4.154;2022-08-27T06:14:07;18.30;99.90
18682;DHT22;9471;51.168;4.154;2022-08-27T06:16:35;18.30;99.90
18682;DHT22;9471;51.168;4.154;2022-08-27T06:19:04;18.20;99.90
18682;DHT22;9471;51.168;4.154;2022-08-27T06:21:32;18.40;99.90
18682;DHT22;9471;51.168;4.154;2022-08-27T06:23:59;18.40;99.90
18682;DHT22;9471;51.168;4.154;2022-08-27T06:26:29;18.40;99.90
18682;DHT22;9471;51.168;4.154;2022-08-27T06:29:01;18.40;99.90
18682;DHT22;9471;51.168;4.154;2022-08-27T06:31:28;18.50;99.90
18682;DHT22;9471;51.168;4.154;2022-08-27T06:33:58;18.70;99.90
18682;DHT22;9471;51.168;4.154;2022-08-27T06:36:29;18.80;99.90
18682;DHT22;9471;51.168;4.154;2022-08-27T06:38:56;18.80;99.90
18682;DHT22;9471;51.168;4.154;2022-08-27T06:41:26;18.90;99.90
18682;DHT22;9471;51.168;4.154;2022-08-27T06:43:54;19.10;99.90
18682;DHT22;9471;51.168;4.154;2022-08-27T06:46:24;19.20;99.90
18682;DHT22;9471;51.168;4.154;2022-08-27T06:48:52;19.20;99.90
18682;DHT22;9471;51.168;4.154;2022-08-27T06:51:21;19.30;99.90
18682;DHT22;9471;51.168;4.154;2022-08-27T06:53:53;19.30;99.90
18682;DHT22;9471;51.168;4.154;2022-08-27T06:56:22;19.40;99.90
18682;DHT22;9471;51.168;4.154;2022-08-27T06:58:51;19.60;99.90
18682;DHT22;9471;51.168;4.154;2022-08-27T07:01:21;19.60;99.90
18682;DHT22;9471;51.168;4.154;2022-08-27T07:03:49;19.60;99.90
18682;DHT22;9471;51.168;4.154;2022-08-27T07:06:16;19.70;99.90
18682;DHT22;9471;51.168;4.154;2022-08-27T07:08:43;19.90;99.90
18682;DHT22;9471;51.168;4.154;2022-08-27T07:11:13;20.00;99.90
18682;DHT22;9471;51.168;4.154;2022-08-27T07:13:41;20.00;99.90
18682;DHT22;9471;51.168;4.154;2022-08-27T07:16:10;20.00;99.90
18682;DHT22;9471;51.168;4.154;2022-08-27T07:18:38;20.00;99.90
18682;DHT22;9471;51.168;4.154;2022-08-27T07:21:06;20.10;99.90
18682;DHT22;9471;51.168;4.154;2022-08-27T07:23:35;20.20;99.90
18682;DHT22;9471;51.168;4.154;2022-08-27T07:26:06;20.30;99.90
18682;DHT22;9471;51.168;4.154;2022-08-27T07:28:35;20.30;99.90
18682;DHT22;9471;51.168;4.154;2022-08-27T07:31:02;20.30;99.90
18682;DHT22;9471;51.168;4.154;2022-08-27T07:33:29;20.30;99.90
18682;DHT22;9471;51.168;4.154;2022-08-27T07:35:58;20.40;99.90
18682;DHT22;9471;51.168;4.154;2022-08-27T07:38:25;20.60;99.90
18682;DHT22;9471;51.168;4.154;2022-08-27T07:40:52;20.80;99.90
18682;DHT22;9471;51.168;4.154;2022-08-27T07:43:19;20.80;99.90
18682;DHT22;9471;51.168;4.154;2022-08-27T07:46:05;20.90;99.90
18682;DHT22;9471;51.168;4.154;2022-08-27T07:48:32;21.00;99.90
18682;DHT22;9471;51.168;4.154;2022-08-27T07:51:00;21.00;99.90
18682;DHT22;9471;51.168;4.154;2022-08-27T07:53:30;21.20;99.90
18682;DHT22;9471;51.168;4.154;2022-08-27T07:56:01;21.40;99.90
18682;DHT22;9471;51.168;4.154;2022-08-27T07:58:29;21.50;99.90
18682;DHT22;9471;51.168;4.154;2022-08-27T08:00:56;21.60;99.90
18682;DHT22;9471;51.168;4.154;2022-08-27T08:03:25;21.50;99.90
18682;DHT22;9471;51.168;4.154;2022-08-27T08:05:52;21.50;99.90
18682;DHT22;9471;51.168;4.154;2022-08-27T08:08:21;21.60;99.90
18682;DHT22;9471;51.168;4.154;2022-08-27T08:10:49;21.60;99.90
18682;DHT22;9471;51.168;4.154;2022-08-27T08:13:17;21.50;99.90
18682;DHT22;9471;51.168;4.154;2022-08-27T08:15:45;21.50;99.90
18682;DHT22;9471;51.168;4.154;2022-08-27T08:18:12;21.50;99.90
18682;DHT22;9471;51.168;4.154;2022-08-27T08:20:41;21.50;99.90
18682;DHT22;9471;51.168;4.154;2022-08-27T08:23:08;21.50;99.90
18682;DHT22;9471;51.168;4.154;2022-08-27T08:25:35;21.50;99.90
18682;DHT22;9471;51.168;4.154;2022-08-27T08:28:02;21.50;99.90
18682;DHT22;9471;51.168;4.154;2022-08-27T08:30:29;21.60;99.90
18682;DHT22;9471;51.168;4.154;2022-08-27T08:32:56;21.50;99.90
18682;DHT22;9471;51.168;4.154;2022-08-27T08:35:23;21.70;99.90
18682;DHT22;9471;51.168;4.154;2022-08-27T08:37:52;21.80;99.90
18682;DHT22;9471;51.168;4.154;2022-08-27T08:40:24;22.00;99.90
18682;DHT22;9471;51.168;4.154;2022-08-27T08:42:54;22.20;99.90
18682;DHT22;9471;51.168;4.154;2022-08-27T08:45:25;22.30;99.90
18682;DHT22;9471;51.168;4.154;2022-08-27T08:47:56;22.30;99.90
18682;DHT22;9471;51.168;4.154;2022-08-27T08:50:29;22.40;99.90
18682;DHT22;9471;51.168;4.154;2022-08-27T08:53:04;22.20;99.90
18682;DHT22;9471;51.168;4.154;2022-08-27T08:55:38;22.20;99.90
18682;DHT22;9471;51.168;4.154;2022-08-27T08:58:11;22.30;99.90
18682;DHT22;9471;51.168;4.154;2022-08-27T09:00:42;22.60;99.90
18682;DHT22;9471;51.168;4.154;2022-08-27T09:03:10;22.90;99.90
18682;DHT22;9471;51.168;4.154;2022-08-27T09:05:41;22.90;99.90
18682;DHT22;9471;51.168;4.154;2022-08-27T09:08:15;23.00;99.90
18682;DHT22;9471;51.168;4.154;2022-08-27T09:10:54;22.90;99.90
18682;DHT22;9471;51.168;4.154;2022-08-27T09:13:24;22.80;99.90
18682;DHT22;9471;51.168;4.154;2022-08-27T09:15:54;22.80;99.90
18682;DHT22;9471;51.168;4.154;2022-08-27T09:18:22;22.80;99.90
18682;DHT22;9471;51.168;4.154;2022-08-27T09:20:56;22.80;99.90
18682;DHT22;9471;51.168;4.154;2022-08-27T09:23:32;22.60;99.90
18682;DHT22;9471;51.168;4.154;2022-08-27T09:26:03;22.60;99.90
18682;DHT22;9471;51.168;4.154;2022-08-27T09:28:30;22.60;99.90
18682;DHT22;9471;51.168;4.154;2022-08-27T09:31:16;22.70;99.90
18682;DHT22;9471;51.168;4.154;2022-08-27T09:33:44;22.60;99.90
18682;DHT22;9471;51.168;4.154;2022-08-27T09:36:13;22.80;99.90
18682;DHT22;9471;51.168;4.154;2022-08-27T09:38:52;22.80;99.90
18682;DHT22;9471;51.168;4.154;2022-08-27T09:41:22;22.80;99.90
18682;DHT22;9471;51.168;4.154;2022-08-27T09:43:58;23.00;99.90
18682;DHT22;9471;51.168;4.154;2022-08-27T09:46:26;23.10;99.90
18682;DHT22;9471;51.168;4.154;2022-08-27T09:48:53;23.10;99.90
18682;DHT22;9471;51.168;4.154;2022-08-27T09:51:22;23.00;99.90
18682;DHT22;9471;51.168;4.154;2022-08-27T09:53:55;22.80;99.90
18682;DHT22;9471;51.168;4.154;2022-08-27T09:56:27;22.90;99.90
18682;DHT22;9471;51.168;4.154;2022-08-27T09:58:59;22.90;99.90
18682;DHT22;9471;51.168;4.154;2022-08-27T10:01:28;22.90;99.90
18682;DHT22;9471;51.168;4.154;2022-08-27T10:04:07;22.90;99.90
18682;DHT22;9471;51.168;4.154;2022-08-27T10:06:35;22.90;99.90
18682;DHT22;9471;51.168;4.154;2022-08-27T10:09:09;23.00;99.90
18682;DHT22;9471;51.168;4.154;2022-08-27T10:11:43;23.10;99.90
18682;DHT22;9471;51.168;4.154;2022-08-27T10:14:15;23.20;99.90
18682;DHT22;9471;51.168;4.154;2022-08-27T10:17:01;23.40;99.90
18682;DHT22;9471;51.168;4.154;2022-08-27T10:19:44;23.50;99.90
18682;DHT22;9471;51.168;4.154;2022-08-27T10:22:25;23.40;99.90
18682;DHT22;9471;51.168;4.154;2022-08-27T10:25:06;23.20;99.90
18682;DHT22;9471;51.168;4.154;2022-08-27T10:27:39;23.00;99.90
18682;DHT22;9471;51.168;4.154;2022-08-27T10:30:11;23.10;99.90
18682;DHT22;9471;51.168;4.154;2022-08-27T10:32:48;23.20;99.90
18682;DHT22;9471;51.168;4.154;2022-08-27T10:35:20;23.30;99.90
18682;DHT22;9471;51.168;4.154;2022-08-27T10:38:00;23.10;99.90
18682;DHT22;9471;51.168;4.154;2022-08-27T10:40:35;22.90;99.90
18682;DHT22;9471;51.168;4.154;2022-08-27T10:43:15;22.90;99.90
18682;DHT22;9471;51.168;4.154;2022-08-27T10:45:48;22.80;99.90
18682;DHT22;9471;51.168;4.154;2022-08-27T10:48:22;22.80;99.90
18682;DHT22;9471;51.168;4.154;2022-08-27T10:50:55;22.80;99.90
18682;DHT22;9471;51.168;4.154;2022-08-27T10:53:32;22.80;99.90
18682;DHT22;9471;51.168;4.154;2022-08-27T10:56:09;22.90;99.90
18682;DHT22;9471;51.168;4.154;2022-08-27T10:58:51;22.90;99.90
18682;DHT22;9471;51.168;4.154;2022-08-27T11:01:29;22.90;99.90
18682;DHT22;9471;51.168;4.154;2022-08-27T11:04:01;23.10;99.90
18682;DHT22;9471;51.168;4.154;2022-08-27T11:06:31;23.10;99.90
18682;DHT22;9471;51.168;4.154;2022-08-27T11:09:02;23.20;99.90
18682;DHT22;9471;51.168;4.154;2022-08-27T11:11:37;23.30;99.90
18682;DHT22;9471;51.168;4.154;2022-08-27T11:14:07;23.40;99.90
18682;DHT22;9471;51.168;4.154;2022-08-27T11:16:39;23.60;99.90
18682;DHT22;9471;51.168;4.154;2022-08-27T11:19:13;23.90;99.90
18682;DHT22;9471;51.168;4.154;2022-08-27T11:21:45;23.80;99.90
18682;DHT22;9471;51.168;4.154;2022-08-27T11:24:21;23.70;99.90
18682;DHT22;9471;51.168;4.154;2022-08-27T11:26:55;23.70;99.90
18682;DHT22;9471;51.168;4.154;2022-08-27T11:29:25;23.80;99.90
18682;DHT22;9471;51.168;4.154;2022-08-27T11:31:59;23.80;99.90
18682;DHT22;9471;51.168;4.154;2022-08-27T11:34:34;23.80;99.90
18682;DHT22;9471;51.168;4.154;2022-08-27T11:37:13;23.80;99.90
18682;DHT22;9471;51.168;4.154;2022-08-27T11:40:04;23.90;99.90
18682;DHT22;9471;51.168;4.154;2022-08-27T11:42:43;23.90;99.90
18682;DHT22;9471;51.168;4.154;2022-08-27T11:45:16;23.90;99.90
18682;DHT22;9471;51.168;4.154;2022-08-27T11:47:51;23.90;99.90
18682;DHT22;9471;51.168;4.154;2022-08-27T11:50:21;24.10;99.90
18682;DHT22;9471;51.168;4.154;2022-08-27T11:52:57;24.10;99.90
18682;DHT22;9471;51.168;4.154;2022-08-27T11:55:28;24.10;99.90
18682;DHT22;9471;51.168;4.154;2022-08-27T11:58:06;24.20;99.90
18682;DHT22;9471;51.168;4.154;2022-08-27T12:00:35;24.40;99.90
18682;DHT22;9471;51.168;4.154;2022-08-27T12:03:06;24.40;99.90
18682;DHT22;9471;51.168;4.154;2022-08-27T12:05:40;24.40;99.90
18682;DHT22;9471;51.168;4.154;2022-08-27T12:08:16;24.50;99.90
18682;DHT22;9471;51.168;4.154;2022-08-27T12:10:54;24.30;99.90
18682;DHT22;9471;51.168;4.154;2022-08-27T12:13:31;24.20;99.90
18682;DHT22;9471;51.168;4.154;2022-08-27T12:16:06;24.20;99.90
18682;DHT22;9471;51.168;4.154;2022-08-27T12:18:55;24.30;99.90
18682;DHT22;9471;51.168;4.154;2022-08-27T12:21:34;24.30;99.90
18682;DHT22;9471;51.168;4.154;2022-08-27T12:24:11;24.30;99.90
18682;DHT22;9471;51.168;4.154;2022-08-27T12:26:54;24.30;99.90
18682;DHT22;9471;51.168;4.154;2022-08-27T12:29:26;24.30;99.90
18682;DHT22;9471;51.168;4.154;2022-08-27T12:32:02;24.50;99.90
18682;DHT22;9471;51.168;4.154;2022-08-27T12:34:41;24.70;99.90
18682;DHT22;9471;51.168;4.154;2022-08-27T12:37:10;24.70;99.90
18682;DHT22;9471;51.168;4.154;2022-08-27T12:39:42;24.60;99.90
18682;DHT22;9471;51.168;4.154;2022-08-27T12:42:16;24.60;99.90
18682;DHT22;9471;51.168;4.154;2022-08-27T12:44:45;24.80;99.90
18682;DHT22;9471;51.168;4.154;2022-08-27T12:47:13;25.00;99.90
18682;DHT22;9471;51.168;4.154;2022-08-27T12:49:46;25.00;99.90
18682;DHT22;9471;51.168;4.154;2022-08-27T12:52:31;25.40;99.90
18682;DHT22;9471;51.168;4.154;2022-08-27T12:55:10;25.70;99.90
18682;DHT22;9471;51.168;4.154;2022-08-27T12:57:44;25.70;99.90
18682;DHT22;9471;51.168;4.154;2022-08-27T13:00:18;25.70;99.90
18682;DHT22;9471;51.168;4.154;2022-08-27T13:05:48;25.70;99.90
18682;DHT22;9471;51.168;4.154;2022-08-27T13:08:20;25.70;99.90
18682;DHT22;9471;51.168;4.154;2022-08-27T13:10:47;25.50;99.90
18682;DHT22;9471;51.168;4.154;2022-08-27T13:13:17;25.60;99.90
18682;DHT22;9471;51.168;4.154;2022-08-27T13:15:47;25.80;99.90
18682;DHT22;9471;51.168;4.154;2022-08-27T13:18:15;25.80;99.60
18682;DHT22;9471;51.168;4.154;2022-08-27T13:20:43;25.90;99.90
18682;DHT22;9471;51.168;4.154;2022-08-27T13:23:15;25.80;99.90
18682;DHT22;9471;51.168;4.154;2022-08-27T13:26:00;25.60;99.90
18682;DHT22;9471;51.168;4.154;2022-08-27T13:28:29;25.80;99.80
18682;DHT22;9471;51.168;4.154;2022-08-27T13:30:58;25.70;99.60
18682;DHT22;9471;51.168;4.154;2022-08-27T13:33:28;25.80;99.20
18682;DHT22;9471;51.168;4.154;2022-08-27T13:35:56;25.80;98.80
18682;DHT22;9471;51.168;4.154;2022-08-27T13:38:25;25.80;99.10
18682;DHT22;9471;51.168;4.154;2022-08-27T13:40:55;25.70;99.30
18682;DHT22;9471;51.168;4.154;2022-08-27T13:43:29;25.70;99.90
18682;DHT22;9471;51.168;4.154;2022-08-27T13:45:59;25.80;99.30
18682;DHT22;9471;51.168;4.154;2022-08-27T13:48:27;25.90;99.40
18682;DHT22;9471;51.168;4.154;2022-08-27T13:50:56;25.80;99.60
18682;DHT22;9471;51.168;4.154;2022-08-27T13:53:25;25.70;99.50
18682;DHT22;9471;51.168;4.154;2022-08-27T13:56:14;25.70;99.30
18682;DHT22;9471;51.168;4.154;2022-08-27T13:58:48;25.60;98.60
18682;DHT22;9471;51.168;4.154;2022-08-27T14:01:27;25.60;98.30
18682;DHT22;9471;51.168;4.154;2022-08-27T14:03:59;25.60;97.80
18682;DHT22;9471;51.168;4.154;2022-08-27T14:06:30;25.40;97.70
18682;DHT22;9471;51.168;4.154;2022-08-27T14:09:08;25.40;97.30
18682;DHT22;9471;51.168;4.154;2022-08-27T14:11:36;25.40;97.70
18682;DHT22;9471;51.168;4.154;2022-08-27T14:14:03;25.40;97.60
18682;DHT22;9471;51.168;4.154;2022-08-27T14:16:33;25.60;97.20
18682;DHT22;9471;51.168;4.154;2022-08-27T14:19:07;25.70;97.10
18682;DHT22;9471;51.168;4.154;2022-08-27T14:21:37;25.70;97.50
18682;DHT22;9471;51.168;4.154;2022-08-27T14:24:05;25.80;97.90
18682;DHT22;9471;51.168;4.154;2022-08-27T14:26:32;25.70;98.10
18682;DHT22;9471;51.168;4.154;2022-08-27T14:28:59;25.80;97.80
18682;DHT22;9471;51.168;4.154;2022-08-27T14:31:27;25.70;98.00
18682;DHT22;9471;51.168;4.154;2022-08-27T14:33:55;25.60;98.40
18682;DHT22;9471;51.168;4.154;2022-08-27T14:36:24;25.40;98.80
18682;DHT22;9471;51.168;4.154;2022-08-27T14:38:52;25.50;98.30
18682;DHT22;9471;51.168;4.154;2022-08-27T14:41:20;25.50;97.80
18682;DHT22;9471;51.168;4.154;2022-08-27T14:43:47;25.60;97.40
18682;DHT22;9471;51.168;4.154;2022-08-27T14:46:21;25.50;97.70
18682;DHT22;9471;51.168;4.154;2022-08-27T14:48:48;25.50;97.80
18682;DHT22;9471;51.168;4.154;2022-08-27T14:51:21;25.60;97.50
18682;DHT22;9471;51.168;4.154;2022-08-27T14:53:48;25.60;97.40
18682;DHT22;9471;51.168;4.154;2022-08-27T14:56:17;25.50;97.60
18682;DHT22;9471;51.168;4.154;2022-08-27T14:58:44;25.60;97.70
18682;DHT22;9471;51.168;4.154;2022-08-27T15:01:11;25.60;97.60
18682;DHT22;9471;51.168;4.154;2022-08-27T15:03:44;25.60;97.40
18682;DHT22;9471;51.168;4.154;2022-08-27T15:06:12;25.60;97.50
18682;DHT22;9471;51.168;4.154;2022-08-27T15:08:41;25.60;98.20
18682;DHT22;9471;51.168;4.154;2022-08-27T15:11:13;25.60;98.10
18682;DHT22;9471;51.168;4.154;2022-08-27T15:13:40;25.70;97.80
18682;DHT22;9471;51.168;4.154;2022-08-27T15:16:07;25.70;97.80
18682;DHT22;9471;51.168;4.154;2022-08-27T15:18:34;26.00;97.40
18682;DHT22;9471;51.168;4.154;2022-08-27T15:21:01;26.30;96.70
18682;DHT22;9471;51.168;4.154;2022-08-27T15:23:28;26.30;96.00
18682;DHT22;9471;51.168;4.154;2022-08-27T15:25:57;26.30;95.80
18682;DHT22;9471;51.168;4.154;2022-08-27T15:28:24;26.10;95.80
18682;DHT22;9471;51.168;4.154;2022-08-27T15:30:51;25.80;96.60
18682;DHT22;9471;51.168;4.154;2022-08-27T15:33:18;25.80;96.40
18682;DHT22;9471;51.168;4.154;2022-08-27T15:35:45;25.80;96.80
18682;DHT22;9471;51.168;4.154;2022-08-27T15:38:12;25.70;97.30
18682;DHT22;9471;51.168;4.154;2022-08-27T15:40:39;25.50;97.60
18682;DHT22;9471;51.168;4.154;2022-08-27T15:43:08;25.50;97.70
18682;DHT22;9471;51.168;4.154;2022-08-27T15:45:36;25.60;97.60
18682;DHT22;9471;51.168;4.154;2022-08-27T15:48:03;25.40;97.90
18682;DHT22;9471;51.168;4.154;2022-08-27T15:50:31;25.30;98.60
18682;DHT22;9471;51.168;4.154;2022-08-27T15:53:01;25.30;99.40
18682;DHT22;9471;51.168;4.154;2022-08-27T15:55:31;25.40;99.70
18682;DHT22;9471;51.168;4.154;2022-08-27T15:57:58;25.70;99.30
18682;DHT22;9471;51.168;4.154;2022-08-27T16:00:27;25.80;99.20
18682;DHT22;9471;51.168;4.154;2022-08-27T16:02:55;25.90;98.70
18682;DHT22;9471;51.168;4.154;2022-08-27T16:05:22;26.00;98.20